Time;durP1;ratioP1;P1;durP2;ratioP2;P2;SDS_P1;SDS_P2;PMS_P1;PMS_P2;Temp;Humidity;BMP_temperature;BMP_pressure;BME280_temperature;BME280_humidity;BME280_pressure;Samples;Min_cycle;Max_cycle;Signal;HPM_P1;HPM_P2
2022/04/24 00:01:36;;;;;;;4.70;4.20;;;12.80;51.10;;;;;;5089835;28;20036;-73
2022/04/24 00:04:02;;;;;;;4.40;3.88;;;12.70;51.40;;;;;;5100197;28;20024;-72
2022/04/24 00:06:27;;;;;;;4.43;3.40;;;12.70;51.50;;;;;;5094943;28;20016;-73
2022/04/24 00:08:56;;;;;;;4.28;3.58;;;12.70;51.50;;;;;;5090772;28;20035;-72
2022/04/24 00:11:21;;;;;;;3.90;3.50;;;12.70;51.70;;;;;;5101843;28;20386;-72
2022/04/24 00:13:47;;;;;;;5.38;4.28;;;12.60;51.70;;;;;;5103695;28;20024;-72
2022/04/24 00:16:12;;;;;;;4.47;3.70;;;12.60;51.90;;;;;;5099246;28;20537;-72
2022/04/24 00:18:38;;;;;;;5.07;4.38;;;12.50;52.00;;;;;;5103066;28;20028;-72
2022/04/24 00:21:07;;;;;;;4.95;4.13;;;12.50;52.10;;;;;;5083815;28;20020;-71
2022/04/24 00:23:33;;;;;;;4.45;4.05;;;12.50;52.10;;;;;;5089566;28;20032;-71
2022/04/24 00:25:59;;;;;;;8.05;5.45;;;12.50;52.20;;;;;;5089461;28;20026;-71
2022/04/24 00:28:25;;;;;;;5.15;4.60;;;12.40;52.70;;;;;;5111952;28;20015;-70
2022/04/24 00:30:51;;;;;;;4.35;3.95;;;12.40;52.50;;;;;;5101170;28;21168;-70
2022/04/24 00:33:16;;;;;;;3.67;3.30;;;12.40;52.40;;;;;;5106618;28;20020;-71
2022/04/24 00:35:42;;;;;;;5.07;4.53;;;12.40;52.50;;;;;;5092428;28;20474;-70
2022/04/24 00:38:08;;;;;;;4.32;3.75;;;12.30;52.60;;;;;;5107909;28;20023;-69
2022/04/24 00:40:33;;;;;;;4.55;3.70;;;12.30;52.70;;;;;;5112033;28;20077;-72
2022/04/24 00:42:58;;;;;;;5.55;4.05;;;12.30;52.80;;;;;;5102717;28;20028;-71
2022/04/24 00:45:24;;;;;;;5.20;4.57;;;12.30;52.90;;;;;;5111976;28;20031;-72
2022/04/24 00:47:50;;;;;;;5.85;4.70;;;12.20;53.00;;;;;;5104854;28;20058;-72
2022/04/24 00:50:16;;;;;;;5.45;4.88;;;12.20;53.30;;;;;;5093199;28;20027;-72
2022/04/24 00:52:42;;;;;;;5.07;4.57;;;12.10;53.40;;;;;;5088765;28;20026;-72
2022/04/24 00:55:08;;;;;;;5.00;4.50;;;12.10;53.60;;;;;;5106983;28;20156;-72
2022/04/24 00:57:34;;;;;;;6.35;4.60;;;12.10;53.80;;;;;;5121362;27;20102;-71
2022/04/24 01:00:01;;;;;;;5.75;4.68;;;12.10;53.80;;;;;;5115755;27;20501;-71
2022/04/24 01:02:27;;;;;;;6.47;5.20;;;12.10;54.00;;;;;;5105253;28;20075;-72
2022/04/24 01:04:52;;;;;;;6.13;4.80;;;12.00;55.00;;;;;;5107321;27;20115;-72
2022/04/24 01:07:18;;;;;;;5.40;4.72;;;12.00;54.40;;;;;;5122716;27;20034;-72
2022/04/24 01:09:43;;;;;;;5.75;5.07;;;12.00;54.60;;;;;;5092496;28;20106;-73
2022/04/24 01:12:09;;;;;;;6.78;5.30;;;11.90;54.80;;;;;;5096085;28;20028;-73
2022/04/24 01:14:35;;;;;;;7.75;5.60;;;11.90;55.00;;;;;;5101502;28;20036;-73
2022/04/24 01:17:03;;;;;;;5.18;4.68;;;11.90;55.20;;;;;;5107372;28;20020;-72
2022/04/24 01:19:29;;;;;;;6.05;4.88;;;11.80;55.30;;;;;;5100508;28;20020;-72
2022/04/24 01:21:55;;;;;;;5.80;5.00;;;11.90;55.40;;;;;;5107016;27;20024;-72
2022/04/24 01:24:23;;;;;;;6.95;5.40;;;11.80;55.60;;;;;;5108979;27;20085;-70
2022/04/24 01:26:50;;;;;;;6.35;5.45;;;11.80;55.80;;;;;;5085838;28;20051;-71
2022/04/24 01:29:16;;;;;;;6.10;5.45;;;11.80;55.80;;;;;;5108803;27;20371;-71
2022/04/24 01:31:44;;;;;;;5.85;5.13;;;11.80;56.40;;;;;;5098457;28;20107;-72
2022/04/24 01:34:10;;;;;;;5.82;4.68;;;11.80;56.40;;;;;;5108690;28;20020;-73
2022/04/24 01:36:36;;;;;;;7.45;5.78;;;11.70;56.30;;;;;;5104714;28;20073;-72
2022/04/24 01:39:02;;;;;;;6.93;5.95;;;11.70;56.60;;;;;;5091320;28;20412;-72
2022/04/24 01:41:28;;;;;;;7.10;6.35;;;11.70;57.40;;;;;;5109003;28;20474;-71
2022/04/24 01:43:53;;;;;;;6.00;5.40;;;11.60;57.80;;;;;;5108562;27;20043;-72
2022/04/24 01:46:19;;;;;;;7.50;6.45;;;11.60;57.70;;;;;;5123011;27;20073;-72
2022/04/24 01:48:45;;;;;;;6.38;5.70;;;11.60;57.80;;;;;;5090397;28;20035;-72
2022/04/24 01:51:11;;;;;;;5.38;4.88;;;11.60;57.80;;;;;;5089233;28;20026;-72
2022/04/24 01:53:37;;;;;;;6.03;5.18;;;11.60;57.70;;;;;;5106426;28;20055;-73
2022/04/24 01:56:07;;;;;;;6.90;5.40;;;11.50;57.80;;;;;;5116731;27;20052;-72
2022/04/24 01:58:33;;;;;;;5.75;5.15;;;11.50;58.10;;;;;;5092199;28;20062;-71
2022/04/24 02:00:59;;;;;;;4.90;4.32;;;11.50;58.00;;;;;;5105289;28;20055;-71
2022/04/24 02:03:26;;;;;;;7.30;5.68;;;11.50;58.10;;;;;;5096802;28;20051;-71
2022/04/24 02:05:52;;;;;;;7.38;5.55;;;11.50;58.60;;;;;;5087714;27;20027;-71
2022/04/24 02:08:17;;;;;;;6.25;5.28;;;11.40;58.80;;;;;;5115446;27;20029;-73
2022/04/24 02:10:43;;;;;;;6.55;5.63;;;11.40;59.00;;;;;;5087446;28;20107;-70
2022/04/24 02:13:09;;;;;;;7.70;5.70;;;11.40;59.20;;;;;;5109672;28;20019;-69
2022/04/24 02:15:35;;;;;;;6.47;5.75;;;11.40;59.30;;;;;;5098158;28;20092;-69
2022/04/24 02:18:01;;;;;;;7.45;6.50;;;11.30;59.30;;;;;;5094984;28;20020;-69
2022/04/24 02:20:28;;;;;;;6.50;5.35;;;11.30;60.00;;;;;;5109190;28;20031;-69
2022/04/24 02:22:55;;;;;;;6.45;5.63;;;11.20;59.90;;;;;;5112419;27;20087;-71
2022/04/24 02:25:21;;;;;;;6.93;5.90;;;11.20;59.90;;;;;;5110658;28;20035;-69
2022/04/24 02:27:47;;;;;;;8.20;6.13;;;11.20;60.00;;;;;;5112315;27;20431;-71
2022/04/24 02:30:12;;;;;;;6.00;5.40;;;11.20;60.10;;;;;;5130830;27;20518;-70
2022/04/24 02:32:38;;;;;;;7.00;6.10;;;11.20;60.10;;;;;;5101054;28;20118;-70
2022/04/24 02:35:04;;;;;;;6.28;5.10;;;11.20;60.30;;;;;;5118149;27;20034;-70
2022/04/24 02:37:32;;;;;;;6.70;5.47;;;11.20;60.30;;;;;;5098625;28;20031;-69
2022/04/24 02:39:58;;;;;;;7.50;5.93;;;11.10;60.50;;;;;;5094191;27;20045;-70
2022/04/24 02:42:23;;;;;;;6.75;5.78;;;11.10;60.70;;;;;;5099557;28;20035;-70
2022/04/24 02:44:49;;;;;;;6.75;5.60;;;11.10;60.90;;;;;;5106123;28;20035;-69
2022/04/24 02:47:14;;;;;;;6.20;4.85;;;11.10;60.90;;;;;;5110768;28;20386;-69
2022/04/24 02:49:40;;;;;;;7.00;5.15;;;11.00;60.80;;;;;;5088940;28;20047;-70
2022/04/24 02:52:06;;;;;;;7.75;5.80;;;11.00;60.90;;;;;;5106668;28;20107;-70
2022/04/24 02:54:31;;;;;;;7.45;5.50;;;11.00;61.20;;;;;;5100805;27;20044;-70
2022/04/24 02:56:57;;;;;;;6.15;5.40;;;11.00;61.20;;;;;;5111692;27;20024;-69
2022/04/24 02:59:25;;;;;;;6.32;5.43;;;11.00;61.40;;;;;;5103398;28;20047;-69
2022/04/24 03:01:51;;;;;;;5.57;4.65;;;11.00;61.40;;;;;;5102633;28;20027;-69
2022/04/24 03:04:17;;;;;;;7.43;6.18;;;10.90;61.30;;;;;;5110827;27;20051;-69
2022/04/24 03:06:42;;;;;;;7.57;6.25;;;10.90;61.80;;;;;;5102623;28;20070;-69
2022/04/24 03:09:08;;;;;;;6.55;5.53;;;10.90;61.70;;;;;;5110202;28;20090;-72
2022/04/24 03:11:33;;;;;;;6.80;5.32;;;10.90;61.60;;;;;;5100930;28;20555;-71
2022/04/24 03:13:59;;;;;;;6.00;4.93;;;10.90;61.60;;;;;;5105697;28;20089;-71
2022/04/24 03:16:25;;;;;;;6.03;5.25;;;10.90;61.50;;;;;;5088873;28;20023;-70
2022/04/24 03:18:51;;;;;;;6.70;6.00;;;10.80;61.50;;;;;;5086797;28;20031;-70
2022/04/24 03:21:17;;;;;;;8.07;5.93;;;10.70;62.10;;;;;;5087955;28;20024;-71
2022/04/24 03:23:42;;;;;;;7.40;6.60;;;10.70;62.20;;;;;;5101517;28;20081;-70
2022/04/24 03:26:08;;;;;;;7.07;5.57;;;10.70;62.50;;;;;;5108667;28;20019;-70
2022/04/24 03:28:33;;;;;;;7.18;5.80;;;10.70;62.50;;;;;;5100823;28;20032;-70
2022/04/24 03:30:59;;;;;;;7.43;6.10;;;10.60;62.40;;;;;;5097127;28;20520;-70
2022/04/24 03:33:24;;;;;;;6.95;5.28;;;10.60;62.70;;;;;;5090717;28;20026;-70
2022/04/24 03:35:50;;;;;;;6.22;5.32;;;10.60;62.70;;;;;;5105616;28;20028;-70
2022/04/24 03:38:15;;;;;;;6.25;5.03;;;10.60;62.60;;;;;;5103466;28;20373;-71
2022/04/24 03:40:41;;;;;;;5.45;4.65;;;10.50;63.10;;;;;;5102609;28;20148;-71
2022/04/24 03:43:06;;;;;;;5.68;4.50;;;10.60;62.40;;;;;;5107004;28;20040;-71
2022/04/24 03:45:32;;;;;;;6.25;4.53;;;10.60;62.30;;;;;;5114458;28;20042;-71
2022/04/24 03:47:57;;;;;;;7.75;4.70;;;10.60;62.40;;;;;;5096015;28;20052;-71
2022/04/24 03:50:23;;;;;;;5.57;4.47;;;10.50;62.40;;;;;;5097683;28;20047;-72
2022/04/24 03:52:48;;;;;;;7.60;5.10;;;10.50;62.30;;;;;;5107974;28;20024;-69
2022/04/24 03:55:14;;;;;;;5.88;5.00;;;10.50;62.30;;;;;;5104954;28;20019;-70
2022/04/24 03:57:40;;;;;;;6.30;5.22;;;10.50;62.30;;;;;;5089669;28;20072;-70
2022/04/24 04:00:07;;;;;;;6.53;4.65;;;10.40;62.30;;;;;;5101540;28;20029;-71
2022/04/24 04:02:48;;;;;;;5.57;4.85;;;10.40;62.40;;;;;;5099207;28;20121;-70
2022/04/24 04:05:16;;;;;;;6.07;5.20;;;10.40;62.60;;;;;;5114977;27;20488;-70
2022/04/24 04:07:41;;;;;;;6.18;4.95;;;10.30;62.70;;;;;;5117356;27;20028;-69
2022/04/24 04:10:08;;;;;;;6.63;5.07;;;10.30;62.90;;;;;;5116868;27;20204;-71
2022/04/24 04:12:33;;;;;;;7.82;5.35;;;10.20;62.90;;;;;;5103603;28;20555;-71
2022/04/24 04:15:06;;;;;;;7.90;4.88;;;10.20;63.10;;;;;;5113050;27;20050;-71
2022/04/24 04:17:32;;;;;;;5.63;4.82;;;10.20;63.00;;;;;;5108048;28;20023;-70
2022/04/24 04:19:58;;;;;;;7.53;5.05;;;10.20;63.00;;;;;;5122107;27;20098;-72
2022/04/24 04:22:24;;;;;;;6.65;5.40;;;10.10;63.30;;;;;;5116524;27;20054;-71
2022/04/24 04:24:50;;;;;;;5.18;4.63;;;10.00;63.50;;;;;;5114834;27;20024;-71
2022/04/24 04:27:15;;;;;;;5.43;4.45;;;10.00;63.50;;;;;;5114789;27;20024;-72
2022/04/24 04:29:41;;;;;;;7.28;4.88;;;10.00;63.50;;;;;;5107448;28;20019;-75
2022/04/24 04:32:07;;;;;;;6.00;5.03;;;10.00;63.70;;;;;;5111791;28;20030;-75
2022/04/24 04:34:32;;;;;;;5.28;3.97;;;10.00;63.60;;;;;;5124362;28;20039;-72
2022/04/24 04:36:58;;;;;;;6.38;5.15;;;10.00;63.60;;;;;;5109379;28;20695;-74
2022/04/24 04:39:23;;;;;;;5.53;4.55;;;9.90;63.60;;;;;;5105963;27;20103;-72
2022/04/24 04:41:49;;;;;;;6.30;5.30;;;9.90;63.70;;;;;;5087990;28;20503;-72
2022/04/24 04:44:14;;;;;;;6.03;4.60;;;9.90;63.80;;;;;;5099142;27;20049;-72
2022/04/24 04:46:40;;;;;;;6.22;4.97;;;9.90;63.90;;;;;;5110225;28;20028;-72
2022/04/24 04:49:05;;;;;;;5.15;4.35;;;9.90;63.70;;;;;;5106846;27;20053;-73
2022/04/24 04:51:31;;;;;;;5.65;4.82;;;9.90;63.60;;;;;;5106646;27;20114;-71
2022/04/24 04:53:57;;;;;;;6.15;4.93;;;9.90;63.60;;;;;;5105792;28;20052;-71
2022/04/24 04:56:23;;;;;;;5.75;4.60;;;9.90;63.70;;;;;;5099644;28;20024;-71
2022/04/24 04:58:48;;;;;;;6.07;4.72;;;9.90;63.60;;;;;;5118726;28;20019;-71
2022/04/24 05:01:14;;;;;;;6.03;4.90;;;9.90;63.70;;;;;;5130931;27;20029;-70
2022/04/24 05:03:40;;;;;;;6.40;4.90;;;9.80;63.90;;;;;;5111894;28;20252;-71
2022/04/24 05:06:05;;;;;;;5.80;4.72;;;9.80;63.80;;;;;;5104721;28;20643;-70
2022/04/24 05:08:31;;;;;;;7.25;4.68;;;9.90;63.70;;;;;;5106903;28;20430;-71
2022/04/24 05:10:57;;;;;;;7.05;5.20;;;9.80;63.70;;;;;;5093019;28;20487;-71
2022/04/24 05:13:22;;;;;;;6.13;4.70;;;9.80;63.80;;;;;;5104188;28;20028;-71
2022/04/24 05:15:48;;;;;;;6.05;4.50;;;9.90;64.10;;;;;;5115905;27;20022;-71
2022/04/24 05:18:14;;;;;;;5.70;5.10;;;9.90;63.60;;;;;;5114321;27;20020;-72
2022/04/24 05:20:39;;;;;;;5.65;4.75;;;9.90;63.70;;;;;;5097979;28;20031;-71
2022/04/24 05:23:06;;;;;;;6.13;5.00;;;9.90;63.60;;;;;;5086539;28;20032;-72
2022/04/24 05:25:32;;;;;;;6.35;4.78;;;9.90;63.60;;;;;;5111470;28;20020;-71
2022/04/24 05:28:00;;;;;;;5.30;4.25;;;9.90;63.40;;;;;;5106400;27;20024;-72
2022/04/24 05:30:27;;;;;;;5.72;4.63;;;10.00;63.40;;;;;;5104724;28;20016;-71
2022/04/24 05:32:52;;;;;;;4.40;3.80;;;10.90;62.50;;;;;;5100526;28;20100;-71
2022/04/24 05:35:18;;;;;;;5.63;4.45;;;12.20;59.80;;;;;;5110705;28;20102;-70
2022/04/24 05:37:47;;;;;;;5.95;4.78;;;13.20;56.80;;;;;;5107391;27;20080;-72
2022/04/24 05:40:14;;;;;;;4.60;3.90;;;14.00;54.20;;;;;;5106175;27;20042;-72
2022/04/24 05:42:49;;;;;;;5.88;4.20;;;14.80;52.60;;;;;;5107733;27;20124;-71
2022/04/24 05:45:18;;;;;;;4.53;3.70;;;15.50;50.70;;;;;;5080011;28;20075;-72
2022/04/24 05:47:44;;;;;;;4.60;4.03;;;16.00;49.50;;;;;;5107860;28;20032;-72
2022/04/24 05:50:10;;;;;;;4.47;3.60;;;16.60;48.30;;;;;;5099792;28;20022;-72
2022/04/24 05:52:36;;;;;;;3.85;3.47;;;16.90;47.50;;;;;;5105058;28;20369;-72
2022/04/24 05:55:02;;;;;;;5.72;3.90;;;17.40;46.90;;;;;;5098820;28;20107;-71
2022/04/24 05:57:27;;;;;;;4.78;3.40;;;17.70;44.90;;;;;;5100206;28;20095;-70
2022/04/24 05:59:53;;;;;;;4.32;3.80;;;18.00;44.50;;;;;;5105152;28;20102;-71
2022/04/24 06:02:18;;;;;;;4.88;4.13;;;18.20;43.70;;;;;;5084255;28;20020;-70
2022/04/24 06:04:44;;;;;;;3.72;3.03;;;18.50;42.70;;;;;;5099962;28;20508;-74
2022/04/24 06:07:10;;;;;;;3.58;3.20;;;19.00;42.70;;;;;;5083733;28;20070;-74
2022/04/24 06:09:35;;;;;;;3.75;3.33;;;19.30;41.60;;;;;;5106070;27;20032;-71
2022/04/24 06:12:01;;;;;;;3.78;2.90;;;19.60;41.40;;;;;;5105749;27;20615;-71
2022/04/24 06:14:28;;;;;;;3.53;3.00;;;20.00;40.30;;;;;;5084741;28;20030;-71
2022/04/24 06:16:54;;;;;;;4.45;2.95;;;20.40;39.90;;;;;;5106813;28;20039;-70
2022/04/24 06:19:20;;;;;;;4.13;3.25;;;20.70;39.20;;;;;;5094818;28;20034;-70
2022/04/24 06:21:45;;;;;;;5.25;3.75;;;21.00;38.70;;;;;;5103006;28;20094;-70
2022/04/24 06:24:11;;;;;;;3.80;3.40;;;20.60;37.60;;;;;;5088934;28;20019;-70
2022/04/24 06:26:36;;;;;;;3.92;3.42;;;20.70;37.90;;;;;;5103809;28;20028;-69
2022/04/24 06:29:02;;;;;;;4.75;3.30;;;20.90;37.80;;;;;;5098393;27;20035;-70
2022/04/24 06:31:28;;;;;;;3.63;3.00;;;20.80;37.40;;;;;;5110422;27;20663;-70
2022/04/24 06:33:54;;;;;;;3.72;3.03;;;21.10;37.50;;;;;;5104023;27;20026;-71
2022/04/24 06:36:19;;;;;;;3.90;3.15;;;21.40;37.10;;;;;;5100222;28;20026;-72
2022/04/24 06:38:45;;;;;;;4.85;3.25;;;21.20;36.60;;;;;;5105832;28;20058;-72
2022/04/24 06:41:10;;;;;;;4.43;4.00;;;21.10;36.70;;;;;;5106927;28;20027;-71
2022/04/24 06:43:36;;;;;;;4.03;3.38;;;21.30;36.40;;;;;;5084953;28;21893;-72
2022/04/24 06:46:01;;;;;;;4.60;3.83;;;21.30;36.30;;;;;;5097694;28;20062;-72
2022/04/24 06:48:27;;;;;;;4.43;3.72;;;21.50;36.10;;;;;;5106659;28;20111;-73
2022/04/24 06:50:52;;;;;;;6.63;3.90;;;21.40;35.90;;;;;;5109517;27;20027;-70
2022/04/24 06:53:20;;;;;;;4.53;3.10;;;21.00;36.00;;;;;;5107430;27;20165;-70
2022/04/24 06:55:47;;;;;;;4.47;3.60;;;20.90;36.50;;;;;;5105503;28;20490;-72
2022/04/24 06:58:15;;;;;;;4.70;3.30;;;20.90;36.40;;;;;;5103664;28;20024;-71
2022/04/24 07:00:42;;;;;;;3.05;2.75;;;21.30;36.60;;;;;;5109304;28;20028;-71
2022/04/24 07:03:09;;;;;;;4.50;3.78;;;21.80;36.10;;;;;;5106569;28;20019;-70
2022/04/24 07:05:35;;;;;;;3.38;2.88;;;22.30;35.30;;;;;;5102644;27;20396;-71
2022/04/24 07:08:00;;;;;;;3.38;3.05;;;22.20;35.40;;;;;;5101122;28;20028;-71
2022/04/24 07:10:26;;;;;;;4.28;3.80;;;22.50;35.20;;;;;;5090285;28;20020;-69
2022/04/24 07:12:52;;;;;;;4.20;3.65;;;22.60;34.90;;;;;;5106006;28;20051;-72
2022/04/24 07:15:20;;;;;;;3.88;3.45;;;22.50;34.60;;;;;;5089955;28;20528;-71
2022/04/24 07:17:46;;;;;;;4.35;3.80;;;22.40;34.60;;;;;;5109567;28;20013;-73
2022/04/24 07:20:14;;;;;;;4.35;3.60;;;22.00;34.70;;;;;;5105547;28;20027;-71
2022/04/24 07:22:58;;;;;;;4.13;3.08;;;22.10;35.00;;;;;;5104472;28;20016;-69
2022/04/24 07:25:25;;;;;;;4.40;4.00;;;22.20;34.90;;;;;;5086212;28;20031;-71
2022/04/24 07:27:52;;;;;;;4.25;3.85;;;21.90;34.60;;;;;;5090089;28;20030;-70
2022/04/24 07:30:19;;;;;;;4.72;3.38;;;21.60;35.00;;;;;;5099995;28;20046;-71
2022/04/24 07:32:51;;;;;;;3.17;2.88;;;22.00;35.10;;;;;;5099055;28;20032;-71
2022/04/24 07:35:20;;;;;;;5.70;3.88;;;22.50;34.80;;;;;;5100990;28;20127;-71
2022/04/24 07:37:46;;;;;;;6.03;3.65;;;22.60;34.20;;;;;;5102969;27;20081;-70
2022/04/24 07:40:14;;;;;;;3.65;3.33;;;22.60;34.30;;;;;;5109904;27;20016;-69
2022/04/24 07:43:00;;;;;;;3.88;3.47;;;22.80;34.10;;;;;;5081684;28;20080;-70
2022/04/24 07:45:47;;;;;;;3.47;3.00;;;22.80;33.70;;;;;;5102712;28;20035;-72
2022/04/24 07:48:14;;;;;;;4.45;3.83;;;22.70;33.90;;;;;;5105066;27;20015;-71
2022/04/24 07:50:42;;;;;;;4.20;3.38;;;22.00;34.20;;;;;;5108159;28;20032;-71
2022/04/24 07:53:08;;;;;;;4.93;3.88;;;22.30;34.80;;;;;;5117388;27;20046;-71
2022/04/24 07:55:34;;;;;;;4.60;3.25;;;22.20;34.60;;;;;;5093439;28;20106;-71
2022/04/24 07:58:00;;;;;;;3.97;3.33;;;22.20;34.80;;;;;;5095615;27;20054;-71
2022/04/24 08:00:31;;;;;;;4.40;3.60;;;22.50;34.70;;;;;;5123997;27;20100;-69
2022/04/24 08:03:01;;;;;;;3.70;3.30;;;22.30;34.70;;;;;;5110139;27;20020;-71
2022/04/24 08:05:31;;;;;;;4.47;4.00;;;22.30;35.10;;;;;;5096443;27;20387;-71
2022/04/24 08:08:00;;;;;;;3.33;3.03;;;21.70;35.50;;;;;;5116864;27;20027;-73
2022/04/24 08:10:28;;;;;;;4.38;3.50;;;21.60;36.40;;;;;;5110584;27;20020;-71
2022/04/24 08:12:54;;;;;;;4.78;4.15;;;21.50;36.80;;;;;;5092184;28;20030;-72
2022/04/24 08:15:20;;;;;;;4.25;3.60;;;21.20;36.90;;;;;;5118281;27;20109;-70
2022/04/24 08:17:45;;;;;;;4.85;3.97;;;20.70;37.90;;;;;;5103322;28;20438;-70
2022/04/24 08:20:13;;;;;;;3.88;2.90;;;20.40;38.50;;;;;;5095007;28;20095;-70
2022/04/24 08:22:40;;;;;;;4.65;3.85;;;20.20;39.40;;;;;;5105310;28;20027;-70
2022/04/24 08:25:07;;;;;;;4.95;3.58;;;19.80;39.60;;;;;;5105743;28;20390;-70
2022/04/24 08:27:33;;;;;;;5.13;3.97;;;19.20;40.10;;;;;;5107400;28;20116;-70
2022/04/24 08:29:58;;;;;;;5.88;4.70;;;18.80;40.70;;;;;;5111110;27;20104;-71
2022/04/24 08:32:25;;;;;;;4.78;3.88;;;18.30;40.80;;;;;;5097621;27;20032;-70
2022/04/24 08:34:51;;;;;;;5.15;4.40;;;17.80;42.00;;;;;;5087883;27;20051;-70
2022/04/24 08:37:16;;;;;;;5.00;4.50;;;17.50;42.20;;;;;;5115557;27;20023;-71
2022/04/24 08:39:42;;;;;;;5.10;4.25;;;17.30;42.70;;;;;;5113722;27;20023;-72
2022/04/24 08:42:11;;;;;;;5.47;3.92;;;17.10;43.40;;;;;;5118756;27;20027;-72
2022/04/24 08:44:39;;;;;;;6.80;4.30;;;17.00;44.00;;;;;;5106397;28;20027;-72
2022/04/24 08:47:06;;;;;;;4.80;4.30;;;17.00;43.90;;;;;;5105823;28;20023;-71
2022/04/24 08:49:32;;;;;;;3.90;3.50;;;16.90;43.90;;;;;;5107186;28;20030;-71
2022/04/24 08:52:01;;;;;;;5.05;4.18;;;16.90;44.10;;;;;;5105824;28;20033;-73
2022/04/24 08:54:28;;;;;;;5.38;4.07;;;16.90;44.20;;;;;;5111781;28;20054;-71
2022/04/24 08:56:56;;;;;;;3.70;3.35;;;16.90;44.30;;;;;;5107105;28;20059;-72
2022/04/24 08:59:22;;;;;;;6.65;4.50;;;17.00;44.30;;;;;;5110385;27;20370;-72
2022/04/24 09:01:49;;;;;;;6.97;4.97;;;17.00;44.10;;;;;;5106162;28;20021;-72
2022/04/24 09:04:15;;;;;;;5.32;4.57;;;17.00;43.90;;;;;;5102543;28;20032;-71
2022/04/24 09:06:41;;;;;;;6.72;4.75;;;16.90;44.10;;;;;;5108990;28;20023;-71
2022/04/24 09:09:07;;;;;;;7.68;4.70;;;16.90;44.10;;;;;;5105888;28;20031;-72
2022/04/24 09:11:33;;;;;;;6.35;4.47;;;17.00;44.10;;;;;;5106944;28;20104;-72
2022/04/24 09:16:49;;;;;;;6.13;4.47;;;17.00;44.40;;;;;;5110094;27;20046;-71
2022/04/24 09:19:23;;;;;;;7.65;4.47;;;17.00;44.40;;;;;;5113511;27;20473;-72
2022/04/24 09:22:00;;;;;;;4.68;4.03;;;17.00;44.50;;;;;;5112443;27;20020;-72
2022/04/24 09:24:38;;;;;;;4.93;4.35;;;17.20;44.60;;;;;;5105496;28;20034;-72
2022/04/24 09:27:04;;;;;;;4.45;3.50;;;17.30;44.50;;;;;;5103237;28;20020;-72
2022/04/24 09:29:29;;;;;;;4.28;3.50;;;17.40;44.40;;;;;;5103859;28;20039;-72
2022/04/24 09:31:55;;;;;;;5.43;4.30;;;17.60;44.40;;;;;;5109700;28;20122;-72
2022/04/24 09:34:21;;;;;;;5.00;4.32;;;17.70;43.90;;;;;;5105916;28;20020;-72
2022/04/24 09:36:59;;;;;;;5.85;4.95;;;17.70;43.70;;;;;;5101562;28;20020;-72
2022/04/24 09:39:29;;;;;;;6.03;4.68;;;17.70;43.60;;;;;;5106807;28;20382;-72
2022/04/24 09:42:03;;;;;;;6.47;4.57;;;17.60;43.50;;;;;;5103405;28;20062;-72
2022/04/24 09:44:55;;;;;;;5.78;4.22;;;17.60;43.80;;;;;;5103496;28;20802;-72
2022/04/24 09:47:24;;;;;;;;;;;17.60;43.80;;;;;;5106308;27;20039;-72
2022/04/24 09:49:51;;;;;;;5.40;4.90;;;17.60;43.60;;;;;;5105367;28;20377;-72
2022/04/24 09:52:19;;;;;;;5.60;4.63;;;17.70;43.20;;;;;;5105279;28;20474;-71
2022/04/24 09:54:50;;;;;;;5.22;4.22;;;17.70;43.20;;;;;;5108642;28;20028;-71
2022/04/24 09:57:17;;;;;;;7.05;5.38;;;17.80;43.30;;;;;;5105037;28;20019;-71
2022/04/24 09:59:44;;;;;;;5.88;4.75;;;17.70;42.90;;;;;;5109827;28;20023;-71
2022/04/24 10:02:11;;;;;;;7.03;4.80;;;17.70;43.30;;;;;;5110288;28;20095;-71
2022/04/24 10:04:39;;;;;;;5.18;4.47;;;17.80;43.30;;;;;;5094651;28;20104;-72
2022/04/24 10:07:11;;;;;;;6.05;4.40;;;17.80;43.10;;;;;;5109902;28;20095;-71
2022/04/24 10:09:47;;;;;;;5.97;4.15;;;17.80;42.90;;;;;;5117898;28;20028;-71
2022/04/24 10:12:18;;;;;;;7.50;5.13;;;17.90;43.00;;;;;;5106831;28;20048;-71
2022/04/24 10:14:46;;;;;;;4.30;3.65;;;18.00;42.30;;;;;;5087759;28;20642;-70
2022/04/24 10:17:34;;;;;;;4.50;3.85;;;18.00;42.60;;;;;;5098230;27;20048;-72
2022/04/24 10:20:30;;;;;;;3.30;3.00;;;18.20;42.50;;;;;;5094590;28;20028;-73
2022/04/24 10:22:57;;;;;;;5.88;4.15;;;18.40;42.40;;;;;;5106025;28;20031;-72
2022/04/24 10:25:38;;;;;;;5.57;3.90;;;18.40;42.10;;;;;;5111006;28;20051;-72
2022/04/24 10:28:11;;;;;;;5.75;4.32;;;18.40;42.00;;;;;;5103648;28;20036;-72
2022/04/24 10:30:37;;;;;;;4.35;3.65;;;18.40;41.60;;;;;;5092042;28;20024;-72
2022/04/24 10:33:22;;;;;;;4.43;3.90;;;18.40;41.50;;;;;;5101248;27;20050;-72
2022/04/24 10:35:51;;;;;;;5.28;4.10;;;18.40;41.40;;;;;;5115639;27;20031;-72
2022/04/24 10:38:23;;;;;;;3.95;3.40;;;18.40;41.40;;;;;;5123415;28;20024;-72
2022/04/24 10:41:14;;;;;;;4.75;3.70;;;18.50;41.30;;;;;;5117418;27;20014;-72
2022/04/24 10:43:45;;;;;;;6.82;4.72;;;18.50;41.60;;;;;;5085438;28;20034;-72
2022/04/24 10:46:26;;;;;;;4.88;3.72;;;18.60;41.30;;;;;;5094837;28;20020;-72
2022/04/24 10:48:52;;;;;;;4.85;4.00;;;18.50;41.20;;;;;;5091476;28;20032;-72
2022/04/24 10:51:29;;;;;;;5.30;4.13;;;18.50;41.30;;;;;;5097214;28;20026;-72
2022/04/24 10:54:07;;;;;;;4.88;3.63;;;18.50;41.30;;;;;;5107248;27;20064;-72
2022/04/24 10:56:33;;;;;;;4.82;3.92;;;18.50;41.50;;;;;;5119772;27;20034;-72
2022/04/24 10:59:18;;;;;;;6.03;3.97;;;18.40;41.00;;;;;;5111209;28;20016;-72
2022/04/24 11:01:52;;;;;;;6.05;3.53;;;18.50;41.40;;;;;;5103580;27;20065;-73
2022/04/24 11:04:19;;;;;;;4.38;3.92;;;18.50;41.80;;;;;;5110704;27;20024;-72
2022/04/24 11:06:55;;;;;;;4.60;3.22;;;18.60;41.50;;;;;;5108051;28;20023;-72
2022/04/24 11:09:21;;;;;;;5.05;3.58;;;18.60;41.10;;;;;;5111042;28;20011;-73
2022/04/24 11:11:55;;;;;;;5.10;3.33;;;18.70;40.90;;;;;;5107404;28;20547;-72
2022/04/24 11:14:23;;;;;;;5.88;4.10;;;18.90;41.10;;;;;;5108249;28;20122;-73
2022/04/24 11:17:00;;;;;;;4.60;3.70;;;18.90;40.50;;;;;;5119469;28;20020;-72
2022/04/24 11:19:27;;;;;;;3.63;3.00;;;19.00;40.40;;;;;;5106980;28;20052;-72
2022/04/24 11:22:14;;;;;;;4.38;3.78;;;19.10;40.30;;;;;;5105523;28;20080;-72
2022/04/24 11:24:40;;;;;;;4.15;3.28;;;19.10;39.70;;;;;;5097253;28;20054;-72
2022/04/24 11:27:14;;;;;;;6.53;3.80;;;19.20;39.90;;;;;;5111875;28;20023;-72
2022/04/24 11:29:42;;;;;;;4.85;3.67;;;19.20;40.00;;;;;;5090331;28;20037;-72
2022/04/24 11:32:09;;;;;;;5.00;3.55;;;19.30;39.80;;;;;;5103515;28;20102;-72
2022/04/24 11:34:36;;;;;;;5.70;3.97;;;19.30;39.50;;;;;;5105457;28;20027;-72
2022/04/24 11:37:02;;;;;;;4.63;3.80;;;19.40;39.00;;;;;;5111322;28;20016;-73
2022/04/24 11:39:29;;;;;;;5.50;3.97;;;19.10;38.30;;;;;;5112840;28;20053;-72
2022/04/24 11:42:00;;;;;;;4.97;3.53;;;19.00;38.80;;;;;;5115310;28;20023;-75
2022/04/24 11:50:15;;;;;;;6.15;3.80;;;19.30;39.00;;;;;;5119113;28;20546;-71
2022/04/24 11:52:46;;;;;;;4.20;3.63;;;19.40;39.20;;;;;;5104745;28;20432;-74
2022/04/24 11:55:21;;;;;;;5.05;3.70;;;19.50;39.00;;;;;;5125408;28;20012;-71
2022/04/24 11:57:59;;;;;;;4.18;3.47;;;19.60;38.80;;;;;;5117763;28;20569;-71
2022/04/24 12:00:36;;;;;;;5.82;3.67;;;19.60;38.50;;;;;;5103470;28;20028;-72
2022/04/24 12:03:03;;;;;;;5.68;3.80;;;19.50;38.50;;;;;;5100496;27;20496;-72
2022/04/24 12:05:29;;;;;;;4.28;3.55;;;19.30;38.40;;;;;;5097793;28;20106;-71
2022/04/24 12:07:56;;;;;;;3.45;3.03;;;19.20;38.60;;;;;;5102348;28;20057;-72
2022/04/24 12:10:23;;;;;;;3.95;3.50;;;19.20;38.70;;;;;;5107740;28;20046;-72
2022/04/24 12:12:50;;;;;;;4.50;3.63;;;19.20;39.00;;;;;;5079278;28;20020;-72
2022/04/24 12:15:18;;;;;;;4.93;3.42;;;19.20;39.00;;;;;;5105294;28;20024;-72
2022/04/24 12:17:53;;;;;;;4.97;3.40;;;19.10;39.20;;;;;;5107171;28;20032;-72
2022/04/24 12:20:20;;;;;;;4.00;3.28;;;19.10;39.60;;;;;;5108584;28;20020;-71
2022/04/24 12:22:46;;;;;;;4.80;3.20;;;19.30;39.30;;;;;;5108221;28;20024;-71
2022/04/24 12:25:18;;;;;;;3.30;2.88;;;19.30;39.10;;;;;;5087206;28;20024;-71
2022/04/24 12:27:57;;;;;;;4.68;3.05;;;19.30;38.90;;;;;;5093735;28;20167;-71
2022/04/24 12:30:31;;;;;;;5.22;3.10;;;19.30;38.90;;;;;;5091930;28;20542;-71
2022/04/24 12:33:07;;;;;;;4.63;3.30;;;19.20;39.10;;;;;;5098872;28;20024;-72
2022/04/24 12:35:33;;;;;;;3.55;2.80;;;19.20;39.00;;;;;;5119602;27;20028;-71
2022/04/24 12:37:59;;;;;;;3.40;2.50;;;19.20;38.50;;;;;;5103957;28;20115;-71
2022/04/24 12:40:25;;;;;;;5.60;3.33;;;19.30;38.40;;;;;;5130298;27;20015;-72
2022/04/24 12:42:52;;;;;;;4.25;3.50;;;19.20;38.20;;;;;;5092580;28;20508;-72
2022/04/24 12:45:20;;;;;;;4.10;3.42;;;19.20;37.40;;;;;;5113281;28;20069;-72
2022/04/24 12:47:46;;;;;;;5.22;3.22;;;19.20;37.30;;;;;;5105314;28;20016;-72
2022/04/24 12:50:12;;;;;;;3.88;3.05;;;19.40;37.10;;;;;;5111828;28;20473;-72
2022/04/24 12:52:37;;;;;;;4.13;3.25;;;19.50;37.10;;;;;;5098600;27;20088;-71
2022/04/24 12:55:03;;;;;;;3.20;2.63;;;19.30;36.90;;;;;;5118544;27;20055;-72
2022/04/24 12:57:29;;;;;;;4.22;3.10;;;19.40;37.30;;;;;;5112742;28;20024;-72
2022/04/24 12:59:54;;;;;;;3.25;2.70;;;19.40;37.20;;;;;;5119264;27;20026;-72